Time;durP1;ratioP1;P1;durP2;ratioP2;P2;SDS_P1;SDS_P2;PMS_P1;PMS_P2;Temp;Humidity;BMP_temperature;BMP_pressure;BME280_temperature;BME280_humidity;BME280_pressure;Samples;Min_cycle;Max_cycle;Signal;HPM_P1;HPM_P2
2021/09/19 00:02:20;;;;;;;25.05;18.35;;;;;;;;;;5051908;28;20497;-59
2021/09/19 00:04:46;;;;;;;23.20;14.15;;;;;;;;;;5033772;28;20029;-61
2021/09/19 00:07:12;;;;;;;24.05;14.63;;;;;;;;;;5031784;28;20390;-61
2021/09/19 00:09:38;;;;;;;19.65;12.98;;;;;;;;;;5013869;28;20147;-61
2021/09/19 00:12:04;;;;;;;21.08;12.73;;;;;;;;;;5031988;28;20021;-61
2021/09/19 00:14:30;;;;;;;20.52;13.15;;;;;;;;;;5031817;28;20064;-60
2021/09/19 00:16:56;;;;;;;20.40;12.80;;;;;;;;;;5016096;28;20029;-61
2021/09/19 00:19:22;;;;;;;23.65;13.05;;;;;;;;;;5035697;28;20017;-61
2021/09/19 00:21:48;;;;;;;19.67;12.40;;;;;;;;;;5018056;28;20027;-60
2021/09/19 00:24:14;;;;;;;21.50;13.48;;;;;;;;;;5035522;28;20104;-61
2021/09/19 00:26:40;;;;;;;24.50;13.90;;;;;;;;;;5035578;28;20080;-61
2021/09/19 00:29:06;;;;;;;20.75;12.65;;;;;;;;;;5035251;28;20026;-59
2021/09/19 00:31:32;;;;;;;19.98;12.50;;;;;;;;;;5035643;28;20026;-61
2021/09/19 00:33:58;;;;;;;23.52;13.98;;;;;;;;;;5017726;28;20063;-61
2021/09/19 00:36:24;;;;;;;21.23;12.30;;;;;;;;;;5035559;28;20049;-61
2021/09/19 00:38:50;;;;;;;21.52;13.02;;;;;;;;;;5017384;28;20120;-61
2021/09/19 00:41:16;;;;;;;22.38;13.70;;;;;;;;;;5035467;28;20393;-62
2021/09/19 00:43:42;;;;;;;20.67;13.50;;;;;;;;;;5035139;28;20117;-61
2021/09/19 00:46:08;;;;;;;22.17;13.60;;;;;;;;;;5035547;28;20097;-61
2021/09/19 00:48:34;;;;;;;22.85;13.63;;;;;;;;;;5035182;28;20033;-61
2021/09/19 00:51:03;;;;;;;22.48;12.57;;;;;;;;;;5017853;28;20041;-61
2021/09/19 00:53:29;;;;;;;22.40;13.05;;;;;;;;;;5035066;28;20034;-61
2021/09/19 00:55:58;;;;;;;21.67;13.60;;;;;;;;;;5017145;28;20036;-61
2021/09/19 00:58:24;;;;;;;19.80;12.05;;;;;;;;;;5034723;28;20481;-61
2021/09/19 01:00:50;;;;;;;21.10;12.30;;;;;;;;;;5034995;28;20037;-60
2021/09/19 01:03:16;;;;;;;20.58;12.55;;;;;;;;;;5034942;28;20032;-57
2021/09/19 01:05:43;;;;;;;19.52;12.43;;;;;;;;;;5034982;28;20060;-61
2021/09/19 01:08:09;;;;;;;21.83;12.80;;;;;;;;;;5016857;28;20501;-60
2021/09/19 01:10:36;;;;;;;20.20;12.43;;;;;;;;;;5034669;28;20022;-61
2021/09/19 01:13:02;;;;;;;20.90;13.07;;;;;;;;;;5034622;28;20025;-61
2021/09/19 01:15:28;;;;;;;21.15;13.10;;;;;;;;;;5034742;28;20533;-61
2021/09/19 01:17:55;;;;;;;20.33;12.75;;;;;;;;;;5017269;28;20456;-59
2021/09/19 01:20:21;;;;;;;20.40;12.48;;;;;;;;;;5034369;28;20034;-59
2021/09/19 01:23:09;;;;;;;21.70;12.68;;;;;;;;;;5034663;28;20037;-61
2021/09/19 01:25:35;;;;;;;19.85;11.45;;;;;;;;;;5017110;28;20366;-60
2021/09/19 01:28:02;;;;;;;22.45;13.05;;;;;;;;;;5015753;28;20041;-61
2021/09/19 01:30:28;;;;;;;29.38;12.93;;;;;;;;;;5034317;28;20022;-60
2021/09/19 01:32:54;;;;;;;20.80;12.73;;;;;;;;;;5034223;28;20033;-61
2021/09/19 01:35:20;;;;;;;20.27;12.02;;;;;;;;;;5034415;28;20025;-61
2021/09/19 01:37:46;;;;;;;19.00;12.05;;;;;;;;;;5034339;28;20029;-58
2021/09/19 01:40:13;;;;;;;19.77;11.82;;;;;;;;;;5016393;28;20030;-61
2021/09/19 01:42:40;;;;;;;19.20;11.68;;;;;;;;;;5034169;28;20478;-61
2021/09/19 01:45:06;;;;;;;18.45;11.23;;;;;;;;;;5034228;28;20044;-61
2021/09/19 01:47:32;;;;;;;19.20;11.25;;;;;;;;;;5016318;28;20115;-60
2021/09/19 01:49:58;;;;;;;20.30;11.48;;;;;;;;;;5033839;28;20079;-61
2021/09/19 01:52:24;;;;;;;18.67;11.18;;;;;;;;;;5034128;28;20017;-61
2021/09/19 01:54:50;;;;;;;18.55;11.25;;;;;;;;;;5033857;28;20047;-61
2021/09/19 01:57:22;;;;;;;18.90;10.80;;;;;;;;;;5033991;28;20474;-61
2021/09/19 01:59:49;;;;;;;19.85;11.02;;;;;;;;;;5015884;28;20080;-59
2021/09/19 02:02:15;;;;;;;17.70;10.75;;;;;;;;;;5016076;28;20505;-60
2021/09/19 02:04:41;;;;;;;19.35;10.85;;;;;;;;;;5016129;28;20087;-57
2021/09/19 02:07:07;;;;;;;17.77;10.23;;;;;;;;;;5016142;28;20493;-60
2021/09/19 02:09:33;;;;;;;17.67;10.35;;;;;;;;;;5033504;28;20033;-61
2021/09/19 02:11:59;;;;;;;19.17;10.45;;;;;;;;;;5033734;28;20033;-61
2021/09/19 02:14:25;;;;;;;21.45;10.57;;;;;;;;;;5015716;28;20026;-61
2021/09/19 02:16:51;;;;;;;17.77;10.07;;;;;;;;;;5016098;28;20078;-61
2021/09/19 02:19:18;;;;;;;19.15;10.98;;;;;;;;;;5015763;28;20041;-61
2021/09/19 02:21:44;;;;;;;18.00;10.73;;;;;;;;;;5033426;28;20033;-61
2021/09/19 02:24:10;;;;;;;18.23;10.52;;;;;;;;;;5015618;28;20493;-61
2021/09/19 02:26:36;;;;;;;20.73;9.88;;;;;;;;;;5015438;28;20030;-61
2021/09/19 02:29:02;;;;;;;19.92;10.90;;;;;;;;;;5015050;28;20057;-61
2021/09/19 02:31:29;;;;;;;18.55;9.88;;;;;;;;;;5015707;28;20079;-61
2021/09/19 02:33:54;;;;;;;19.10;10.15;;;;;;;;;;5015331;28;20021;-61
2021/09/19 02:36:20;;;;;;;16.70;9.90;;;;;;;;;;5015445;28;20311;-61
2021/09/19 02:38:46;;;;;;;17.70;10.30;;;;;;;;;;5015037;28;20021;-60
2021/09/19 02:41:12;;;;;;;18.92;10.55;;;;;;;;;;5015335;28;20481;-60
2021/09/19 02:43:38;;;;;;;18.98;10.38;;;;;;;;;;5032885;28;20029;-61
2021/09/19 02:46:04;;;;;;;18.52;10.32;;;;;;;;;;5032782;28;20029;-61
2021/09/19 02:48:30;;;;;;;17.70;10.70;;;;;;;;;;5032318;28;20076;-61
2021/09/19 02:50:56;;;;;;;18.45;10.68;;;;;;;;;;5032813;28;20029;-60
2021/09/19 02:53:22;;;;;;;17.50;9.68;;;;;;;;;;5032793;28;20034;-59
2021/09/19 02:55:48;;;;;;;17.38;10.23;;;;;;;;;;5014968;28;20045;-61
2021/09/19 02:58:14;;;;;;;17.73;10.18;;;;;;;;;;5032476;28;20029;-61
2021/09/19 03:00:40;;;;;;;18.80;9.70;;;;;;;;;;5032759;28;20048;-59
2021/09/19 03:03:06;;;;;;;17.55;10.15;;;;;;;;;;5032600;28;20486;-61
2021/09/19 03:05:32;;;;;;;17.33;9.63;;;;;;;;;;5032638;28;20100;-61
2021/09/19 03:07:58;;;;;;;16.83;9.88;;;;;;;;;;5032618;28;20032;-61
2021/09/19 03:10:24;;;;;;;19.98;10.15;;;;;;;;;;5032401;28;20397;-61
2021/09/19 03:12:50;;;;;;;17.10;9.88;;;;;;;;;;5032420;28;20029;-61
2021/09/19 03:15:16;;;;;;;17.05;9.82;;;;;;;;;;5032412;28;20159;-60
2021/09/19 03:17:42;;;;;;;18.50;9.80;;;;;;;;;;5014602;28;20039;-61
2021/09/19 03:20:10;;;;;;;19.00;10.35;;;;;;;;;;5032129;28;20049;-61
2021/09/19 03:22:36;;;;;;;18.10;9.80;;;;;;;;;;5032391;28;20056;-60
2021/09/19 03:25:03;;;;;;;18.25;9.68;;;;;;;;;;5032597;28;20030;-61
2021/09/19 03:27:30;;;;;;;19.70;12.57;;;;;;;;;;5032438;28;20110;-60
2021/09/19 03:29:56;;;;;;;42.83;30.88;;;;;;;;;;5032147;28;20104;-59
2021/09/19 03:32:22;;;;;;;26.70;18.80;;;;;;;;;;5032341;28;20080;-61
2021/09/19 03:34:48;;;;;;;22.73;14.45;;;;;;;;;;5014857;28;20429;-61
2021/09/19 03:37:14;;;;;;;30.90;23.52;;;;;;;;;;5014793;28;20022;-61
2021/09/19 03:39:43;;;;;;;26.95;18.75;;;;;;;;;;5014438;28;20374;-61
2021/09/19 03:42:09;;;;;;;21.83;10.52;;;;;;;;;;5032394;28;20022;-61
2021/09/19 03:44:35;;;;;;;17.77;9.50;;;;;;;;;;5033114;28;20044;-61
2021/09/19 03:47:01;;;;;;;17.30;9.38;;;;;;;;;;5014758;28;20474;-61
2021/09/19 03:49:27;;;;;;;19.10;9.82;;;;;;;;;;5032242;28;20065;-61
2021/09/19 03:51:53;;;;;;;17.00;9.68;;;;;;;;;;5031593;28;20017;-62
2021/09/19 03:54:19;;;;;;;17.85;9.63;;;;;;;;;;5014255;28;20038;-61
2021/09/19 03:56:45;;;;;;;18.95;10.20;;;;;;;;;;5014500;28;20064;-61
2021/09/19 03:59:11;;;;;;;17.63;9.75;;;;;;;;;;5031777;28;20444;-62
2021/09/19 04:01:37;;;;;;;17.88;9.48;;;;;;;;;;5031951;28;20075;-62
2021/09/19 04:04:03;;;;;;;17.98;9.80;;;;;;;;;;5014284;28;20419;-61
2021/09/19 04:06:29;;;;;;;18.30;9.57;;;;;;;;;;5032016;28;20025;-62
2021/09/19 04:08:55;;;;;;;16.35;9.40;;;;;;;;;;5031596;28;20026;-62
2021/09/19 04:11:21;;;;;;;17.90;9.80;;;;;;;;;;5014268;28;20029;-62
2021/09/19 04:13:47;;;;;;;17.27;9.80;;;;;;;;;;5031917;28;20471;-62
2021/09/19 04:16:13;;;;;;;17.50;9.05;;;;;;;;;;5031744;28;20105;-62
2021/09/19 04:18:39;;;;;;;17.27;9.57;;;;;;;;;;5031558;28;20057;-62
2021/09/19 04:21:05;;;;;;;20.35;9.32;;;;;;;;;;5031865;28;20068;-61
2021/09/19 04:23:31;;;;;;;16.95;8.77;;;;;;;;;;5031760;28;20029;-62
2021/09/19 04:25:57;;;;;;;15.77;8.40;;;;;;;;;;5014045;28;20080;-62
2021/09/19 04:28:23;;;;;;;16.70;9.25;;;;;;;;;;5031437;28;20065;-61
2021/09/19 04:30:48;;;;;;;16.90;9.55;;;;;;;;;;5031599;28;20025;-62
2021/09/19 04:33:14;;;;;;;17.55;8.93;;;;;;;;;;5013984;28;20447;-62
2021/09/19 04:35:41;;;;;;;19.55;9.02;;;;;;;;;;5031750;28;20021;-61
2021/09/19 04:38:07;;;;;;;15.25;8.07;;;;;;;;;;5032165;28;20477;-62
2021/09/19 04:40:33;;;;;;;15.52;8.43;;;;;;;;;;5014418;28;20087;-61
2021/09/19 04:42:59;;;;;;;16.52;8.85;;;;;;;;;;5031538;28;20509;-61
2021/09/19 04:45:25;;;;;;;15.88;8.45;;;;;;;;;;5031470;28;20057;-61
2021/09/19 04:47:51;;;;;;;16.30;7.93;;;;;;;;;;5013638;28;20029;-62
2021/09/19 04:50:17;;;;;;;15.82;8.30;;;;;;;;;;5031238;28;20063;-61
2021/09/19 04:52:43;;;;;;;15.88;8.60;;;;;;;;;;5031124;28;20025;-61
2021/09/19 04:55:09;;;;;;;15.40;8.45;;;;;;;;;;5031378;28;20500;-61
2021/09/19 04:57:35;;;;;;;16.20;8.73;;;;;;;;;;5013559;28;20048;-61
2021/09/19 05:00:01;;;;;;;20.98;9.43;;;;;;;;;;5008854;28;20018;-61
2021/09/19 05:02:27;;;;;;;16.85;8.85;;;;;;;;;;5031354;28;20048;-63
2021/09/19 05:04:53;;;;;;;16.45;9.25;;;;;;;;;;5016821;28;20036;-61
2021/09/19 05:07:19;;;;;;;15.85;8.45;;;;;;;;;;5027550;28;20456;-61
2021/09/19 05:09:45;;;;;;;16.52;8.10;;;;;;;;;;5054213;28;20029;-61
2021/09/19 05:12:11;;;;;;;16.15;8.13;;;;;;;;;;5036853;28;20186;-61
2021/09/19 05:14:37;;;;;;;14.88;8.07;;;;;;;;;;5036818;28;20172;-60
2021/09/19 05:17:03;;;;;;;16.52;8.30;;;;;;;;;;5054173;28;20759;-61
2021/09/19 05:19:29;;;;;;;16.85;8.77;;;;;;;;;;5054179;28;20071;-61
2021/09/19 05:21:55;;;;;;;16.73;8.95;;;;;;;;;;5036651;28;20033;-61
2021/09/19 05:24:21;;;;;;;16.83;9.00;;;;;;;;;;5054263;28;20029;-60
2021/09/19 05:26:46;;;;;;;15.70;8.27;;;;;;;;;;5036513;28;20039;-61
2021/09/19 05:29:12;;;;;;;16.15;8.35;;;;;;;;;;5035974;28;20025;-62
2021/09/19 05:31:38;;;;;;;14.30;7.72;;;;;;;;;;5054283;28;20418;-61
2021/09/19 05:34:05;;;;;;;16.65;9.40;;;;;;;;;;5054135;28;20033;-61
2021/09/19 05:36:31;;;;;;;22.05;9.13;;;;;;;;;;5036277;28;20024;-60
2021/09/19 05:38:57;;;;;;;16.85;8.80;;;;;;;;;;5054222;28;20029;-61
2021/09/19 05:41:24;;;;;;;16.13;8.02;;;;;;;;;;5053534;28;20025;-61
2021/09/19 05:43:49;;;;;;;14.82;8.00;;;;;;;;;;5053795;28;20033;-61
2021/09/19 05:46:17;;;;;;;16.33;8.52;;;;;;;;;;5036203;28;20021;-61
2021/09/19 05:48:43;;;;;;;19.52;10.82;;;;;;;;;;5035774;28;20024;-59
2021/09/19 05:51:10;;;;;;;16.63;8.23;;;;;;;;;;5053866;28;20025;-60
2021/09/19 05:53:36;;;;;;;15.65;7.90;;;;;;;;;;5074617;22;20457;-64
2021/09/19 05:56:02;;;;;;;15.77;8.07;;;;;;;;;;5031552;28;20037;-65
2021/09/19 05:58:28;;;;;;;17.95;8.55;;;;;;;;;;5031348;28;20734;-65
2021/09/19 06:00:54;;;;;;;15.57;8.10;;;;;;;;;;5032765;28;20036;-65
2021/09/19 06:03:19;;;;;;;17.33;8.10;;;;;;;;;;5032651;28;20022;-65
2021/09/19 06:05:45;;;;;;;14.52;7.40;;;;;;;;;;5014698;28;20029;-65
2021/09/19 06:08:11;;;;;;;15.88;8.10;;;;;;;;;;5031923;28;20084;-64
2021/09/19 06:10:37;;;;;;;15.35;7.80;;;;;;;;;;5014702;28;20025;-65
2021/09/19 06:13:03;;;;;;;15.23;7.70;;;;;;;;;;5032577;28;20475;-65
2021/09/19 06:15:30;;;;;;;17.90;8.32;;;;;;;;;;5031930;28;20026;-65
2021/09/19 06:17:56;;;;;;;15.68;7.85;;;;;;;;;;5014676;28;20025;-65
2021/09/19 06:20:22;;;;;;;16.08;7.97;;;;;;;;;;5031980;28;20052;-64
2021/09/19 06:22:48;;;;;;;17.15;8.32;;;;;;;;;;5014777;28;20138;-64
2021/09/19 06:25:14;;;;;;;15.43;7.68;;;;;;;;;;5032163;28;20025;-65
2021/09/19 06:27:40;;;;;;;14.80;7.82;;;;;;;;;;5032057;28;20025;-65
2021/09/19 06:30:07;;;;;;;17.73;8.98;;;;;;;;;;5014279;28;20401;-64
2021/09/19 06:32:33;;;;;;;15.70;8.27;;;;;;;;;;5014774;28;20025;-65
2021/09/19 06:34:59;;;;;;;17.88;8.35;;;;;;;;;;5014092;28;20048;-64
2021/09/19 06:37:25;;;;;;;16.42;8.05;;;;;;;;;;5032082;28;20024;-64
2021/09/19 06:39:51;;;;;;;19.00;9.45;;;;;;;;;;5014028;28;20103;-64
2021/09/19 06:42:17;;;;;;;16.27;8.48;;;;;;;;;;5028089;28;20094;-65
2021/09/19 06:44:43;;;;;;;15.50;8.52;;;;;;;;;;5051651;28;20473;-65
2021/09/19 06:47:09;;;;;;;15.63;8.27;;;;;;;;;;5034040;28;20112;-65
2021/09/19 06:49:35;;;;;;;15.32;8.65;;;;;;;;;;5051373;28;20437;-64
2021/09/19 06:52:01;;;;;;;15.90;8.60;;;;;;;;;;5051652;28;20063;-65
2021/09/19 06:54:27;;;;;;;16.48;9.45;;;;;;;;;;5051437;28;20032;-63
2021/09/19 06:56:53;;;;;;;15.73;9.15;;;;;;;;;;5051565;28;20032;-64
2021/09/19 06:59:19;;;;;;;17.75;8.98;;;;;;;;;;5033490;28;20393;-63
2021/09/19 07:01:45;;;;;;;15.80;9.07;;;;;;;;;;5033555;28;20033;-64
2021/09/19 07:04:11;;;;;;;17.40;9.02;;;;;;;;;;5051269;28;20048;-62
2021/09/19 07:06:37;;;;;;;16.45;9.00;;;;;;;;;;5051293;28;20083;-61
2021/09/19 07:09:03;;;;;;;16.48;9.40;;;;;;;;;;5034900;28;20041;-62
2021/09/19 07:11:29;;;;;;;15.77;9.15;;;;;;;;;;5013652;28;20030;-60
2021/09/19 07:13:55;;;;;;;16.17;8.85;;;;;;;;;;5013434;28;20120;-60
2021/09/19 07:16:21;;;;;;;17.02;9.13;;;;;;;;;;5031368;28;20148;-59
2021/09/19 07:18:47;;;;;;;15.90;9.65;;;;;;;;;;5030841;28;20030;-61
2021/09/19 07:21:13;;;;;;;16.98;9.70;;;;;;;;;;5031245;28;20533;-59
2021/09/19 07:23:39;;;;;;;17.25;9.15;;;;;;;;;;5031045;28;20033;-61
2021/09/19 07:26:05;;;;;;;16.73;9.93;;;;;;;;;;5012668;28;20033;-61
2021/09/19 07:28:31;;;;;;;16.83;9.65;;;;;;;;;;5030691;28;20477;-60
2021/09/19 07:30:57;;;;;;;15.95;9.25;;;;;;;;;;5031105;28;20022;-60
2021/09/19 07:33:23;;;;;;;16.75;8.73;;;;;;;;;;5030693;28;20056;-59
2021/09/19 07:35:50;;;;;;;16.77;9.48;;;;;;;;;;5013086;28;20036;-61
2021/09/19 07:38:17;;;;;;;16.23;8.98;;;;;;;;;;5030800;28;20036;-61
2021/09/19 07:40:43;;;;;;;16.77;9.27;;;;;;;;;;5031043;28;20033;-62
2021/09/19 07:43:09;;;;;;;16.52;9.18;;;;;;;;;;5030745;28;20037;-61
2021/09/19 07:45:35;;;;;;;17.90;9.60;;;;;;;;;;5013045;28;20546;-60
2021/09/19 07:48:03;;;;;;;17.15;10.15;;;;;;;;;;5013045;28;20546;-63
2021/09/19 07:50:29;;;;;;;17.52;9.65;;;;;;;;;;5030658;28;20025;-62
2021/09/19 07:52:55;;;;;;;16.40;10.13;;;;;;;;;;5030925;28;20037;-62
2021/09/19 07:55:21;;;;;;;16.88;9.40;;;;;;;;;;5030744;28;20048;-62
2021/09/19 07:57:47;;;;;;;17.23;10.25;;;;;;;;;;5013030;28;20404;-62
2021/09/19 08:00:13;;;;;;;17.30;9.95;;;;;;;;;;5030529;28;20025;-60
2021/09/19 08:02:40;;;;;;;15.88;9.90;;;;;;;;;;5030654;28;20101;-61
2021/09/19 08:05:06;;;;;;;15.75;10.18;;;;;;;;;;5030668;28;20396;-61
2021/09/19 08:07:32;;;;;;;17.63;10.15;;;;;;;;;;5030591;28;20477;-62
2021/09/19 08:09:58;;;;;;;15.70;10.23;;;;;;;;;;5030320;28;20079;-61
2021/09/19 08:12:24;;;;;;;16.85;10.05;;;;;;;;;;5013084;28;20033;-61
2021/09/19 08:14:50;;;;;;;16.45;10.23;;;;;;;;;;5013027;28;20489;-62
2021/09/19 08:17:16;;;;;;;18.13;10.10;;;;;;;;;;5012776;28;20026;-62
2021/09/19 08:19:42;;;;;;;17.17;10.55;;;;;;;;;;5030520;28;20112;-60
2021/09/19 08:22:08;;;;;;;16.75;10.63;;;;;;;;;;5009502;28;20030;-62
2021/09/19 08:24:34;;;;;;;17.67;10.20;;;;;;;;;;5030573;28;20030;-62
2021/09/19 08:27:00;;;;;;;16.35;10.70;;;;;;;;;;5011809;28;20552;-60
2021/09/19 08:29:26;;;;;;;16.30;10.65;;;;;;;;;;5028349;28;20124;-61
2021/09/19 08:31:53;;;;;;;16.08;10.52;;;;;;;;;;4993209;28;20137;-62
2021/09/19 08:34:19;;;;;;;23.00;11.82;;;;;;;;;;5023758;28;20026;-62
2021/09/19 08:36:45;;;;;;;23.02;11.80;;;;;;;;;;5011888;28;20071;-62
2021/09/19 08:39:11;;;;;;;16.35;10.70;;;;;;;;;;5034221;28;20457;-61
2021/09/19 08:41:37;;;;;;;17.63;11.02;;;;;;;;;;5020806;28;20069;-62
2021/09/19 08:44:04;;;;;;;18.25;10.10;;;;;;;;;;5032971;28;20061;-62
2021/09/19 08:46:30;;;;;;;16.00;10.50;;;;;;;;;;5015975;28;20025;-62
2021/09/19 08:48:56;;;;;;;16.80;10.98;;;;;;;;;;5014097;28;20515;-62
2021/09/19 08:51:22;;;;;;;17.50;10.93;;;;;;;;;;5016105;28;20116;-61
2021/09/19 08:53:50;;;;;;;17.58;10.40;;;;;;;;;;5014755;28;20160;-61
2021/09/19 08:56:23;;;;;;;16.25;10.85;;;;;;;;;;5016556;28;20033;-61
2021/09/19 08:58:50;;;;;;;17.27;11.15;;;;;;;;;;5033873;28;20450;-63
2021/09/19 09:01:16;;;;;;;17.02;11.52;;;;;;;;;;5033988;28;20029;-62
2021/09/19 09:03:43;;;;;;;17.40;11.13;;;;;;;;;;5014068;28;20025;-62
2021/09/19 09:06:09;;;;;;;16.77;10.55;;;;;;;;;;5032399;28;20026;-61
2021/09/19 09:08:35;;;;;;;16.15;11.15;;;;;;;;;;5015722;28;20077;-61
2021/09/19 09:11:10;;;;;;;17.60;11.10;;;;;;;;;;5034210;28;20022;-61
2021/09/19 09:13:38;;;;;;;16.38;10.73;;;;;;;;;;5033422;28;20029;-60
2021/09/19 09:16:12;;;;;;;17.58;11.07;;;;;;;;;;5034033;28;20485;-60
2021/09/19 09:18:38;;;;;;;17.15;10.93;;;;;;;;;;5031977;28;20037;-61
2021/09/19 09:21:14;;;;;;;17.00;11.30;;;;;;;;;;5033523;28;20528;-62
2021/09/19 09:23:41;;;;;;;19.75;11.13;;;;;;;;;;4999872;28;20393;-60
2021/09/19 09:26:11;;;;;;;16.63;10.43;;;;;;;;;;5033024;28;20033;-61
2021/09/19 09:28:39;;;;;;;16.85;10.85;;;;;;;;;;5032810;28;20094;-61
2021/09/19 09:31:05;;;;;;;17.40;11.80;;;;;;;;;;5033206;28;20025;-60
2021/09/19 09:33:31;;;;;;;16.13;10.93;;;;;;;;;;5033096;28;20033;-61
2021/09/19 09:35:57;;;;;;;17.70;11.13;;;;;;;;;;5033121;28;20017;-61
2021/09/19 09:38:25;;;;;;;17.60;11.77;;;;;;;;;;5032370;28;20037;-59
2021/09/19 09:40:51;;;;;;;17.50;11.88;;;;;;;;;;5033099;28;20362;-59
2021/09/19 09:43:19;;;;;;;16.90;11.85;;;;;;;;;;5032684;28;20392;-62
2021/09/19 09:45:46;;;;;;;18.10;13.20;;;;;;;;;;5032870;28;20030;-61
2021/09/19 09:48:48;;;;;;;17.63;11.77;;;;;;;;;;5027323;28;20452;-61
2021/09/19 09:51:21;;;;;;;20.65;11.35;;;;;;;;;;4968554;28;20034;-61
2021/09/19 09:53:54;;;;;;;16.75;11.43;;;;;;;;;;5012676;28;20052;-60
2021/09/19 09:56:20;;;;;;;17.27;11.75;;;;;;;;;;5010178;28;20164;-61
2021/09/19 09:58:46;;;;;;;17.63;12.13;;;;;;;;;;5001874;28;20041;-61
2021/09/19 10:01:12;;;;;;;17.52;12.38;;;;;;;;;;5029765;28;20172;-61
2021/09/19 10:03:38;;;;;;;16.15;11.85;;;;;;;;;;5029621;28;20505;-62
2021/09/19 10:06:04;;;;;;;15.88;11.50;;;;;;;;;;5029713;28;20035;-62
2021/09/19 10:08:30;;;;;;;16.20;11.75;;;;;;;;;;5029136;28;20089;-63
2021/09/19 10:10:56;;;;;;;16.65;12.10;;;;;;;;;;5013052;28;20080;-62
2021/09/19 10:13:22;;;;;;;17.55;12.10;;;;;;;;;;5032121;28;20053;-62
2021/09/19 10:15:48;;;;;;;15.95;11.60;;;;;;;;;;5014041;28;20025;-63
2021/09/19 10:18:17;;;;;;;15.95;11.52;;;;;;;;;;5031726;28;20509;-63
2021/09/19 10:20:46;;;;;;;17.83;12.27;;;;;;;;;;5031640;28;20044;-62
2021/09/19 10:23:19;;;;;;;16.70;12.88;;;;;;;;;;5031732;28;20040;-62
2021/09/19 10:25:55;;;;;;;16.90;11.65;;;;;;;;;;5031636;28;20037;-62
2021/09/19 10:28:22;;;;;;;17.10;12.30;;;;;;;;;;5031273;28;20026;-60
2021/09/19 10:31:07;;;;;;;19.25;12.40;;;;;;;;;;5031011;28;20025;-61
2021/09/19 10:33:43;;;;;;;16.92;12.45;;;;;;;;;;5031530;28;20053;-63
2021/09/19 10:36:29;;;;;;;17.33;12.90;;;;;;;;;;5014213;28;20409;-62
2021/09/19 10:39:15;;;;;;;16.92;12.88;;;;;;;;;;5031332;28;20083;-63
2021/09/19 10:42:00;;;;;;;16.38;12.10;;;;;;;;;;5009951;28;20625;-62
2021/09/19 10:44:37;;;;;;;15.80;12.50;;;;;;;;;;5013737;28;20029;-63
2021/09/19 10:47:04;;;;;;;17.17;13.10;;;;;;;;;;5031721;28;20018;-63
2021/09/19 10:49:33;;;;;;;16.30;12.80;;;;;;;;;;5031092;28;20025;-63
2021/09/19 10:52:01;;;;;;;16.17;12.88;;;;;;;;;;5031417;28;20037;-63
2021/09/19 10:54:43;;;;;;;16.50;12.75;;;;;;;;;;5030914;28;20485;-62
2021/09/19 10:57:18;;;;;;;16.48;13.30;;;;;;;;;;5031010;28;20029;-63
2021/09/19 11:00:07;;;;;;;16.30;13.52;;;;;;;;;;5031007;28;20032;-62
2021/09/19 11:02:34;;;;;;;16.30;13.18;;;;;;;;;;5030634;28;20029;-61
2021/09/19 11:05:18;;;;;;;16.63;12.43;;;;;;;;;;5031030;28;20037;-61
2021/09/19 11:07:44;;;;;;;16.13;12.93;;;;;;;;;;5015603;28;20021;-61
2021/09/19 11:10:13;;;;;;;16.58;12.48;;;;;;;;;;5013310;28;20026;-61
2021/09/19 11:12:51;;;;;;;16.20;13.02;;;;;;;;;;5030981;28;20100;-62
2021/09/19 11:15:24;;;;;;;17.45;12.90;;;;;;;;;;5031074;28;20040;-61
2021/09/19 11:17:51;;;;;;;16.52;12.90;;;;;;;;;;5017061;28;20025;-61
2021/09/19 11:20:17;;;;;;;16.60;12.70;;;;;;;;;;5030940;28;20029;-61
2021/09/19 11:22:48;;;;;;;16.38;12.95;;;;;;;;;;5030709;28;20496;-61
2021/09/19 11:25:15;;;;;;;16.92;12.85;;;;;;;;;;5030815;28;20387;-61
2021/09/19 11:27:42;;;;;;;17.67;13.23;;;;;;;;;;5012315;28;20025;-60
2021/09/19 11:30:10;;;;;;;16.70;12.98;;;;;;;;;;5030629;28;20132;-61
2021/09/19 11:32:36;;;;;;;15.77;12.63;;;;;;;;;;5030820;28;20028;-61
2021/09/19 11:35:03;;;;;;;17.92;13.05;;;;;;;;;;5030516;28;20049;-61
2021/09/19 11:37:29;;;;;;;16.38;12.80;;;;;;;;;;5030586;28;20032;-62
2021/09/19 11:40:21;;;;;;;16.36;12.72;;;;;;;;;;4847897;28;10000508;-62
2021/09/19 11:42:47;;;;;;;19.15;13.07;;;;;;;;;;5008730;28;20618;-61
2021/09/19 11:45:14;;;;;;;18.30;13.40;;;;;;;;;;5010511;28;20021;-60
2021/09/19 11:47:40;;;;;;;16.55;12.63;;;;;;;;;;5028020;28;20022;-62
2021/09/19 11:50:07;;;;;;;17.20;12.90;;;;;;;;;;5010362;28;20066;-62
2021/09/19 11:52:33;;;;;;;17.70;12.90;;;;;;;;;;5027797;28;20447;-62
2021/09/19 11:54:59;;;;;;;17.80;12.88;;;;;;;;;;5051087;22;20055;-61
2021/09/19 11:57:25;;;;;;;17.38;12.93;;;;;;;;;;5027905;28;20033;-63
2021/09/19 11:59:51;;;;;;;17.02;13.13;;;;;;;;;;5027373;28;20519;-59
2021/09/19 12:02:18;;;;;;;17.15;12.70;;;;;;;;;;5028500;28;20037;-61
2021/09/19 12:04:44;;;;;;;18.27;12.90;;;;;;;;;;5028540;28;20030;-61
2021/09/19 12:07:12;;;;;;;16.05;12.75;;;;;;;;;;5011134;28;20867;-61
2021/09/19 12:10:04;;;;;;;18.55;12.60;;;;;;;;;;5028644;28;20382;-62
2021/09/19 12:12:30;;;;;;;18.73;13.32;;;;;;;;;;5027372;28;20044;-61
2021/09/19 12:14:56;;;;;;;16.15;12.85;;;;;;;;;;5014759;28;20056;-61
2021/09/19 12:17:29;;;;;;;16.50;13.10;;;;;;;;;;5032667;28;20026;-62
2021/09/19 12:19:57;;;;;;;17.40;13.10;;;;;;;;;;5032169;28;20493;-61
2021/09/19 12:22:23;;;;;;;18.57;13.57;;;;;;;;;;5014787;28;20036;-62
2021/09/19 12:24:54;;;;;;;16.95;13.57;;;;;;;;;;5032413;28;20288;-61
2021/09/19 12:27:24;;;;;;;21.98;13.18;;;;;;;;;;5032300;28;20108;-61
2021/09/19 12:29:58;;;;;;;19.08;14.25;;;;;;;;;;5031838;28;20029;-61
2021/09/19 12:32:40;;;;;;;17.83;13.40;;;;;;;;;;5032295;28;20025;-61
2021/09/19 12:35:08;;;;;;;17.55;13.90;;;;;;;;;;5032023;28;20381;-61
2021/09/19 12:37:35;;;;;;;16.98;13.73;;;;;;;;;;5017536;28;20429;-62
2021/09/19 12:40:12;;;;;;;17.60;14.10;;;;;;;;;;5028863;28;20025;-62
2021/09/19 12:42:38;;;;;;;17.98;14.07;;;;;;;;;;5014319;28;20179;-62
2021/09/19 12:45:09;;;;;;;16.52;12.98;;;;;;;;;;5031944;28;20033;-61
2021/09/19 12:47:35;;;;;;;17.42;13.43;;;;;;;;;;5015495;28;20044;-60
2021/09/19 12:50:01;;;;;;;18.33;13.32;;;;;;;;;;5016777;28;20025;-61
2021/09/19 12:52:31;;;;;;;19.20;14.02;;;;;;;;;;5034768;28;20021;-61
2021/09/19 12:54:59;;;;;;;18.48;13.52;;;;;;;;;;4667691;28;10000301;-61
2021/09/19 12:57:26;;;;;;;19.20;14.27;;;;;;;;;;5031985;28;20025;-62
2021/09/19 12:59:52;;;;;;;18.35;15.10;;;;;;;;;;5031412;28;20037;-62
2021/09/19 13:02:18;;;;;;;16.63;13.75;;;;;;;;;;5031716;28;20084;-60
2021/09/19 13:04:44;;;;;;;17.08;13.88;;;;;;;;;;5013811;28;20029;-62
2021/09/19 13:07:11;;;;;;;17.10;14.40;;;;;;;;;;5013770;28;20025;-61
2021/09/19 13:09:38;;;;;;;17.10;13.75;;;;;;;;;;5030970;28;20754;-61
2021/09/19 13:12:04;;;;;;;16.40;13.70;;;;;;;;;;5031512;28;20029;-61
2021/09/19 13:14:31;;;;;;;16.52;13.82;;;;;;;;;;5012955;28;20029;-62
2021/09/19 13:16:56;;;;;;;17.02;14.13;;;;;;;;;;5013956;28;20029;-60
2021/09/19 13:19:22;;;;;;;17.10;14.02;;;;;;;;;;5013176;28;20037;-60
2021/09/19 13:21:49;;;;;;;16.45;13.73;;;;;;;;;;5031369;28;20071;-60
2021/09/19 13:24:15;;;;;;;16.70;13.90;;;;;;;;;;5011853;28;20386;-60
2021/09/19 13:26:41;;;;;;;16.50;13.50;;;;;;;;;;5013592;28;20035;-59
2021/09/19 13:29:08;;;;;;;19.98;14.60;;;;;;;;;;5013237;28;20039;-60
2021/09/19 13:31:34;;;;;;;17.15;14.10;;;;;;;;;;5013667;28;20400;-60
2021/09/19 13:34:00;;;;;;;18.98;14.70;;;;;;;;;;5030810;28;20036;-58
2021/09/19 13:36:27;;;;;;;18.33;14.00;;;;;;;;;;5013564;28;20075;-60
2021/09/19 13:38:56;;;;;;;17.70;14.10;;;;;;;;;;5013041;28;20489;-60
2021/09/19 13:41:23;;;;;;;17.80;13.52;;;;;;;;;;5013189;28;20060;-58
2021/09/19 13:43:52;;;;;;;18.98;13.98;;;;;;;;;;5032958;28;20053;-62
2021/09/19 13:46:19;;;;;;;18.25;13.13;;;;;;;;;;5033953;28;20057;-60
2021/09/19 13:48:46;;;;;;;17.92;13.38;;;;;;;;;;5033066;28;20456;-58
2021/09/19 13:51:12;;;;;;;18.17;13.65;;;;;;;;;;5015926;28;20082;-60
2021/09/19 13:53:38;;;;;;;18.15;13.73;;;;;;;;;;5016306;28;20621;-61
2021/09/19 13:56:04;;;;;;;18.80;13.95;;;;;;;;;;5015831;28;20087;-60
2021/09/19 13:58:30;;;;;;;17.08;13.93;;;;;;;;;;5033594;28;20057;-60
2021/09/19 14:00:56;;;;;;;17.58;14.30;;;;;;;;;;5015247;28;20067;-60
2021/09/19 14:03:22;;;;;;;17.30;13.50;;;;;;;;;;5032760;28;20021;-60
2021/09/19 14:05:48;;;;;;;16.73;13.65;;;;;;;;;;5033529;28;20040;-60
2021/09/19 14:08:14;;;;;;;23.17;13.85;;;;;;;;;;5032994;28;20025;-59
2021/09/19 14:10:40;;;;;;;18.02;14.10;;;;;;;;;;5033311;28;20022;-60
2021/09/19 14:13:07;;;;;;;18.33;13.88;;;;;;;;;;4684532;28;10000115;-60
2021/09/19 14:15:33;;;;;;;16.95;13.52;;;;;;;;;;5030243;28;20025;-61
2021/09/19 14:17:59;;;;;;;20.27;14.05;;;;;;;;;;5030596;28;20044;-60
2021/09/19 14:20:27;;;;;;;18.80;14.45;;;;;;;;;;5012144;28;20533;-61
2021/09/19 14:22:53;;;;;;;17.33;13.80;;;;;;;;;;5030605;28;20032;-60